createdAt,value
2017-06-25T00:00:11.066Z,26.21
2017-06-25T00:01:21.008Z,26.18
2017-06-25T00:02:30.792Z,26.2
2017-06-25T00:03:40.101Z,26.09
2017-06-25T00:04:50.344Z,26.2
2017-06-25T00:06:00.268Z,26.2
2017-06-25T00:07:10.231Z,26.09
2017-06-25T00:08:20.330Z,26.21
2017-06-25T00:09:29.949Z,26.1
2017-06-25T00:10:39.893Z,26.06
2017-06-25T00:11:49.535Z,26.2
2017-06-25T00:12:59.486Z,26.21
2017-06-25T00:14:09.800Z,26.18
2017-06-25T00:15:20.039Z,26.2
2017-06-25T00:16:30.286Z,26.07
2017-06-25T00:17:40.201Z,26.07
2017-06-25T00:18:50.144Z,26.13
2017-06-25T00:20:00.236Z,26.1
2017-06-25T00:21:09.545Z,26.15
2017-06-25T00:22:19.791Z,26.13
2017-06-25T00:23:29.726Z,26.1
2017-06-25T00:24:39.647Z,26.09
2017-06-25T00:25:49.415Z,26.09
2017-06-25T00:26:58.432Z,26.1
2017-06-25T00:28:08.659Z,26.09
2017-06-25T00:29:18.611Z,26.12
2017-06-25T00:30:27.930Z,26.12
2017-06-25T00:31:37.709Z,26.15
2017-06-25T00:32:47.959Z,26.05
2017-06-25T00:33:57.959Z,26.09
2017-06-25T00:35:08.511Z,26.13
2017-06-25T00:36:18.801Z,26.15
2017-06-25T00:37:29.188Z,26.09
2017-06-25T00:38:39.425Z,26.12
2017-06-25T00:39:49.371Z,26.12
2017-06-25T00:40:59.309Z,26.13
2017-06-25T00:42:09.246Z,26.12
2017-06-25T00:43:19.659Z,26.12
2017-06-25T00:44:29.920Z,26.09
2017-06-25T00:45:39.860Z,26.13
2017-06-25T00:46:50.087Z,26.12
2017-06-25T00:48:00.008Z,26.05
2017-06-25T00:49:09.938Z,26.12
2017-06-25T00:50:19.860Z,26.09
2017-06-25T00:51:30.463Z,26.1
2017-06-25T00:52:40.089Z,26.13
2017-06-25T00:53:48.785Z,26.12
2017-06-25T00:54:59.028Z,26.12
2017-06-25T00:56:08.995Z,26.13
2017-06-25T00:57:18.930Z,26.07
2017-06-25T00:58:29.197Z,26.12
2017-06-25T00:59:39.144Z,26.1
2017-06-25T01:00:48.915Z,26.12
2017-06-25T01:01:58.539Z,26.13
2017-06-25T01:03:08.469Z,26.15
2017-06-25T01:04:18.085Z,26.1
2017-06-25T01:05:27.698Z,26.06
2017-06-25T01:06:37.774Z,26.1
2017-06-25T01:07:47.997Z,26.07
2017-06-25T01:08:57.930Z,26.09
2017-06-25T01:10:07.544Z,26.01
2017-06-25T01:11:17.173Z,26.06
2017-06-25T01:12:27.400Z,25.98
2017-06-25T01:13:37.339Z,25.99
2017-06-25T01:14:47.574Z,25.97
2017-06-25T01:15:57.208Z,26.06
2017-06-25T01:17:07.169Z,25.95
2017-06-25T01:18:17.467Z,26.1
2017-06-25T01:19:27.694Z,25.99
2017-06-25T01:20:37.621Z,26.01
2017-06-25T01:21:47.262Z,26.02
2017-06-25T01:22:57.191Z,25.95
2017-06-25T01:24:07.109Z,26.01
2017-06-25T01:25:16.727Z,25.98
2017-06-25T01:26:26.649Z,25.92
2017-06-25T01:27:36.583Z,25.95
2017-06-25T01:28:46.831Z,25.95
2017-06-25T01:29:56.602Z,26.02
2017-06-25T01:31:06.217Z,25.95
2017-06-25T01:32:16.177Z,26.05
2017-06-25T01:33:26.436Z,26.05
2017-06-25T01:34:36.670Z,25.98
2017-06-25T01:35:46.604Z,25.95
2017-06-25T01:36:56.839Z,25.99
2017-06-25T01:38:07.068Z,26.05
2017-06-25T01:39:17.317Z,26.01
2017-06-25T01:40:26.936Z,26.02
2017-06-25T01:41:37.165Z,26.06
2017-06-25T01:42:46.162Z,25.99
2017-06-25T01:43:56.400Z,26.01
2017-06-25T01:45:06.633Z,26.02
2017-06-25T01:46:15.954Z,26.02
2017-06-25T01:47:25.732Z,25.98
2017-06-25T01:48:35.345Z,25.99
2017-06-25T01:49:45.575Z,25.99
2017-06-25T01:50:55.500Z,26.02
2017-06-25T01:52:05.129Z,25.99
2017-06-25T01:53:14.176Z,25.97
2017-06-25T01:54:23.799Z,25.95
2017-06-25T01:55:34.032Z,25.95
2017-06-25T01:56:43.966Z,25.99
2017-06-25T01:57:53.611Z,25.98
2017-06-25T01:59:02.926Z,25.99
2017-06-25T02:00:12.545Z,26.02
2017-06-25T02:01:22.768Z,26.01
2017-06-25T02:02:32.394Z,25.95
2017-06-25T02:03:42.644Z,25.97
2017-06-25T02:04:52.579Z,25.97
2017-06-25T02:06:02.203Z,26.02
2017-06-25T02:07:12.139Z,25.98
2017-06-25T02:08:22.081Z,26.05
2017-06-25T02:09:32.033Z,26.02
2017-06-25T02:10:42.115Z,25.97
2017-06-25T02:11:52.343Z,25.97
2017-06-25T02:13:02.601Z,25.95
2017-06-25T02:14:12.538Z,25.94
2017-06-25T02:15:22.499Z,25.88
2017-06-25T02:16:32.436Z,25.9
2017-06-25T02:17:42.060Z,25.87
2017-06-25T02:18:51.680Z,25.77
2017-06-25T02:20:01.321Z,25.77
2017-06-25T02:21:11.276Z,25.79
2017-06-25T02:22:21.865Z,25.7
2017-06-25T02:23:31.508Z,25.75
2017-06-25T02:24:41.431Z,25.76
2017-06-25T02:25:51.351Z,25.7
2017-06-25T02:27:01.324Z,25.7
2017-06-25T02:28:11.731Z,25.69
2017-06-25T02:29:21.670Z,25.7
2017-06-25T02:30:31.293Z,25.73
2017-06-25T02:31:40.304Z,25.64
2017-06-25T02:32:50.268Z,25.73
2017-06-25T02:34:00.516Z,25.72
2017-06-25T02:35:10.763Z,25.72
2017-06-25T02:36:20.703Z,25.73
2017-06-25T02:37:30.334Z,25.79
2017-06-25T02:38:40.589Z,25.76
2017-06-25T02:39:50.875Z,25.75
2017-06-25T02:41:01.115Z,25.75
2017-06-25T02:42:11.056Z,25.7
2017-06-25T02:43:21.302Z,25.79
2017-06-25T02:44:31.540Z,25.75
2017-06-25T02:45:41.554Z,25.87
2017-06-25T02:46:51.805Z,25.73
2017-06-25T02:48:01.738Z,25.76
2017-06-25T02:49:11.987Z,25.77
2017-06-25T02:50:21.623Z,25.75
2017-06-25T02:51:31.340Z,25.8
2017-06-25T02:52:41.267Z,25.85
2017-06-25T02:53:50.899Z,25.75
2017-06-25T02:55:01.139Z,25.85
2017-06-25T02:56:10.462Z,25.8
2017-06-25T02:57:20.086Z,25.9
2017-06-25T02:58:29.405Z,25.83
2017-06-25T02:59:39.037Z,25.82
2017-06-25T03:00:49.296Z,25.82
2017-06-25T03:01:58.602Z,25.85
2017-06-25T03:03:08.682Z,25.79
2017-06-25T03:04:18.623Z,25.8
2017-06-25T03:05:28.585Z,25.9
2017-06-25T03:06:38.538Z,25.82
2017-06-25T03:07:48.758Z,25.8
2017-06-25T03:08:58.387Z,25.82
2017-06-25T03:10:08.642Z,25.76
2017-06-25T03:11:18.574Z,25.85
2017-06-25T03:12:28.503Z,25.85
2017-06-25T03:13:38.721Z,25.75
2017-06-25T03:14:49.126Z,25.82
2017-06-25T03:15:59.058Z,25.8
2017-06-25T03:17:08.991Z,25.83
2017-06-25T03:18:19.226Z,25.87
2017-06-25T03:19:29.462Z,25.77
2017-06-25T03:20:39.391Z,25.85
2017-06-25T03:21:49.994Z,25.82
2017-06-25T03:22:59.918Z,25.75
2017-06-25T03:24:10.178Z,25.82
2017-06-25T03:25:20.417Z,25.82
2017-06-25T03:26:30.833Z,25.79
2017-06-25T03:27:40.443Z,25.8
2017-06-25T03:28:50.688Z,25.82
2017-06-25T03:30:00.343Z,25.8
2017-06-25T03:31:10.287Z,25.75
2017-06-25T03:32:20.016Z,25.77
2017-06-25T03:33:30.263Z,25.82
2017-06-25T03:34:39.902Z,25.8
2017-06-25T03:35:50.133Z,25.8
2017-06-25T03:37:00.071Z,25.82
2017-06-25T03:38:09.747Z,25.77
2017-06-25T03:39:19.992Z,25.79
2017-06-25T03:40:29.921Z,25.77
2017-06-25T03:41:40.169Z,25.79
2017-06-25T03:42:50.413Z,25.82
2017-06-25T03:43:59.734Z,25.82
2017-06-25T03:45:09.347Z,25.79
2017-06-25T03:46:19.355Z,25.82
2017-06-25T03:47:29.279Z,25.8
2017-06-25T03:48:39.201Z,25.82
2017-06-25T03:49:48.667Z,25.82
2017-06-25T03:50:58.300Z,25.77
2017-06-25T03:52:08.530Z,25.76
2017-06-25T03:53:18.450Z,25.77
2017-06-25T03:54:28.375Z,25.8
2017-06-25T03:55:38.216Z,25.82
2017-06-25T03:56:48.153Z,25.83
2017-06-25T03:57:58.111Z,25.79
2017-06-25T03:59:08.040Z,25.79
2017-06-25T04:00:18.275Z,25.73
2017-06-25T04:01:28.680Z,25.72
2017-06-25T04:02:38.913Z,25.73
2017-06-25T04:03:48.837Z,25.7
2017-06-25T04:04:58.781Z,25.75
2017-06-25T04:06:08.092Z,25.65
2017-06-25T04:07:17.470Z,25.65
2017-06-25T04:08:27.704Z,25.6
2017-06-25T04:09:37.311Z,25.67
2017-06-25T04:10:47.267Z,25.64
2017-06-25T04:11:57.521Z,25.47
2017-06-25T04:13:07.434Z,25.55
2017-06-25T04:14:17.679Z,25.38
2017-06-25T04:15:27.919Z,25.4
2017-06-25T04:16:38.181Z,25.36
2017-06-25T04:17:48.421Z,25.27
2017-06-25T04:18:58.357Z,25.36
2017-06-25T04:20:08.286Z,25.39
2017-06-25T04:21:18.215Z,25.32
2017-06-25T04:22:28.169Z,25.38
2017-06-25T04:23:38.410Z,25.3
2017-06-25T04:24:48.757Z,25.32
2017-06-25T04:25:58.075Z,25.3
2017-06-25T04:27:07.709Z,25.33
2017-06-25T04:28:17.958Z,25.35
2017-06-25T04:29:27.593Z,25.32
2017-06-25T04:30:37.633Z,25.32
2017-06-25T04:31:47.868Z,25.28
2017-06-25T04:32:58.127Z,25.25
2017-06-25T04:34:08.064Z,25.3
2017-06-25T04:35:17.990Z,25.32
2017-06-25T04:36:27.933Z,25.25
2017-06-25T04:37:37.888Z,25.33
2017-06-25T04:38:47.827Z,25.32
2017-06-25T04:39:57.474Z,25.32
2017-06-25T04:41:07.093Z,25.27
2017-06-25T04:42:17.009Z,25.4
2017-06-25T04:43:26.962Z,25.32
2017-06-25T04:44:35.973Z,25.35
2017-06-25T04:45:45.911Z,25.35
2017-06-25T04:46:55.559Z,25.33
2017-06-25T04:48:05.484Z,25.32
2017-06-25T04:49:15.429Z,25.32
2017-06-25T04:50:25.668Z,25.28
2017-06-25T04:51:35.911Z,25.3
2017-06-25T04:52:45.817Z,25.46
2017-06-25T04:53:56.168Z,25.39
2017-06-25T04:55:06.098Z,25.27
2017-06-25T04:56:16.353Z,25.38
2017-06-25T04:57:25.991Z,25.33
2017-06-25T04:58:36.251Z,25.33
2017-06-25T04:59:45.946Z,25.33
2017-06-25T05:00:55.896Z,25.21
2017-06-25T05:02:05.833Z,25.3
2017-06-25T05:03:15.450Z,25.27
2017-06-25T05:04:25.403Z,25.28
2017-06-25T05:05:35.200Z,25.23
2017-06-25T05:06:44.816Z,25.17
2017-06-25T05:07:54.742Z,25.27
2017-06-25T05:09:04.981Z,25.3
2017-06-25T05:10:14.907Z,25.21
2017-06-25T05:11:24.368Z,25.27
2017-06-25T05:12:34.307Z,25.27
2017-06-25T05:13:44.216Z,25.25
2017-06-25T05:14:54.138Z,25.28
2017-06-25T05:16:04.430Z,25.38
2017-06-25T05:17:13.800Z,25.35
2017-06-25T05:18:24.030Z,25.27
2017-06-25T05:19:33.957Z,25.33
2017-06-25T05:20:44.196Z,25.36
2017-06-25T05:21:53.825Z,25.36
2017-06-25T05:23:04.218Z,25.36
2017-06-25T05:24:13.540Z,25.3
2017-06-25T05:25:23.816Z,25.32
2017-06-25T05:26:33.442Z,25.25
2017-06-25T05:27:43.067Z,25.32
2017-06-25T05:28:53.462Z,25.39
2017-06-25T05:30:03.700Z,25.28
2017-06-25T05:31:13.632Z,25.27
2017-06-25T05:32:23.541Z,25.28
2017-06-25T05:33:33.468Z,25.42
2017-06-25T05:34:43.392Z,25.38
2017-06-25T05:35:52.712Z,25.33
2017-06-25T05:37:02.651Z,25.39
2017-06-25T05:38:12.267Z,25.3
2017-06-25T05:39:22.210Z,25.39
2017-06-25T05:40:32.286Z,25.32
2017-06-25T05:41:41.292Z,25.3
2017-06-25T05:42:50.919Z,25.38
2017-06-25T05:44:00.839Z,25.32
2017-06-25T05:45:10.762Z,25.36
2017-06-25T05:46:21.061Z,25.42
2017-06-25T05:47:30.405Z,25.33
2017-06-25T05:48:40.690Z,25.38
2017-06-25T05:49:50.625Z,25.35
2017-06-25T05:51:00.856Z,25.3
2017-06-25T05:52:10.927Z,25.38
2017-06-25T05:53:21.154Z,25.42
2017-06-25T05:54:31.079Z,25.36
2017-06-25T05:55:41.324Z,25.38
2017-06-25T05:56:50.634Z,25.43
2017-06-25T05:58:00.629Z,25.33
2017-06-25T05:59:10.919Z,25.36
2017-06-25T06:00:20.855Z,25.4
2017-06-25T06:01:31.082Z,25.38
2017-06-25T06:02:40.689Z,25.38
2017-06-25T06:03:50.629Z,25.39
2017-06-25T06:04:59.950Z,25.42
2017-06-25T06:06:09.880Z,25.42
2017-06-25T06:07:20.113Z,25.28
2017-06-25T06:08:29.433Z,25.4
2017-06-25T06:09:39.504Z,25.33
2017-06-25T06:10:49.728Z,25.38
2017-06-25T06:11:59.965Z,25.4
2017-06-25T06:13:09.897Z,25.33
2017-06-25T06:14:18.885Z,25.36
2017-06-25T06:15:28.967Z,25.39
2017-06-25T06:16:38.887Z,25.33
2017-06-25T06:17:48.820Z,25.35
2017-06-25T06:18:58.761Z,25.46
2017-06-25T06:20:09.016Z,25.5
2017-06-25T06:21:19.296Z,25.52
2017-06-25T06:22:29.530Z,25.47
2017-06-25T06:23:39.141Z,25.47
2017-06-25T06:24:49.370Z,25.5
2017-06-25T06:25:59.619Z,25.57
2017-06-25T06:27:09.918Z,25.52
2017-06-25T06:28:20.155Z,25.61
2017-06-25T06:29:29.761Z,25.69
2017-06-25T06:30:39.994Z,25.73
2017-06-25T06:31:49.921Z,25.69
2017-06-25T06:33:00.140Z,25.7
2017-06-25T06:34:10.385Z,25.61
2017-06-25T06:35:20.336Z,25.65
2017-06-25T06:36:29.639Z,25.62
2017-06-25T06:37:39.869Z,25.64
2017-06-25T06:38:50.245Z,25.65
2017-06-25T06:39:59.860Z,25.65
2017-06-25T06:41:09.786Z,25.58
2017-06-25T06:42:19.718Z,25.52
2017-06-25T06:43:29.023Z,25.61
2017-06-25T06:44:38.792Z,25.61
2017-06-25T06:45:48.714Z,25.5
2017-06-25T06:46:58.643Z,25.51
2017-06-25T06:48:08.595Z,25.6
2017-06-25T06:49:18.225Z,25.62
2017-06-25T06:50:28.277Z,25.55
2017-06-25T06:51:37.730Z,25.69
2017-06-25T06:52:47.646Z,25.6
2017-06-25T06:53:57.565Z,25.75
2017-06-25T06:55:07.491Z,25.73
2017-06-25T06:56:17.555Z,25.79
2017-06-25T06:57:27.772Z,25.83
2017-06-25T06:58:37.998Z,25.91
2017-06-25T06:59:48.008Z,25.88
2017-06-25T07:00:58.249Z,25.91
2017-06-25T07:02:08.314Z,25.95
2017-06-25T07:03:18.545Z,25.97
2017-06-25T07:04:28.481Z,25.97
2017-06-25T07:05:38.100Z,25.94
2017-06-25T07:06:48.036Z,26.02
2017-06-25T07:07:57.701Z,25.95
2017-06-25T07:09:07.605Z,26.05
2017-06-25T07:10:17.517Z,25.97
2017-06-25T07:11:26.845Z,26.01
2017-06-25T07:12:37.151Z,26.1
2017-06-25T07:13:47.413Z,26.1
2017-06-25T07:14:57.319Z,26.13
2017-06-25T07:16:06.926Z,26.13
2017-06-25T07:17:17.256Z,26.09
2017-06-25T07:18:27.194Z,26.21
2017-06-25T07:19:37.579Z,26.21
2017-06-25T07:20:46.895Z,26.23
2017-06-25T07:21:56.656Z,26.28
2017-06-25T07:23:06.992Z,26.21
2017-06-25T07:24:16.397Z,26.23
2017-06-25T07:25:27.064Z,26.29
2017-06-25T07:26:37.280Z,26.33
2017-06-25T07:27:47.237Z,26.28
2017-06-25T07:28:57.757Z,26.33
2017-06-25T07:30:07.674Z,26.29
2017-06-25T07:31:17.886Z,26.36
2017-06-25T07:32:28.729Z,26.36
2017-06-25T07:33:38.671Z,26.32
2017-06-25T07:34:49.541Z,26.39
2017-06-25T07:35:59.999Z,26.37
2017-06-25T07:37:10.697Z,26.44
2017-06-25T07:38:20.854Z,26.43
2017-06-25T07:39:30.768Z,26.43
2017-06-25T07:40:40.998Z,26.5
2017-06-25T07:41:51.322Z,26.5
2017-06-25T07:43:01.080Z,26.52
2017-06-25T07:44:11.294Z,26.52
2017-06-25T07:45:21.517Z,26.55
2017-06-25T07:46:31.272Z,26.55
2017-06-25T07:47:41.240Z,26.66
2017-06-25T07:48:51.211Z,26.63
2017-06-25T07:50:01.426Z,26.66
2017-06-25T07:51:11.039Z,26.65
2017-06-25T07:52:20.646Z,26.65
2017-06-25T07:53:30.597Z,26.69
2017-06-25T07:54:40.516Z,26.7
2017-06-25T07:55:50.433Z,26.75
2017-06-25T07:57:00.341Z,26.82
2017-06-25T07:58:09.971Z,26.81
2017-06-25T07:59:20.188Z,26.84
2017-06-25T08:00:30.408Z,26.92
2017-06-25T08:01:40.033Z,27.09
2017-06-25T08:02:49.645Z,27.21
2017-06-25T08:03:59.855Z,27.34
2017-06-25T08:05:09.915Z,27.46
2017-06-25T08:06:19.837Z,27.84
2017-06-25T08:07:29.139Z,28.09
2017-06-25T08:08:38.453Z,28.24
2017-06-25T08:09:48.693Z,28.18
2017-06-25T08:10:58.960Z,28.24
2017-06-25T08:12:09.566Z,28.41
2017-06-25T08:13:19.781Z,28.29
2017-06-25T08:14:29.111Z,28.22
2017-06-25T08:15:38.411Z,28.18
2017-06-25T08:16:48.475Z,28.15
2017-06-25T08:17:58.461Z,28.03
2017-06-25T08:19:07.764Z,27.99
2017-06-25T08:20:17.713Z,27.88
2017-06-25T08:21:27.931Z,27.82
2017-06-25T08:22:38.034Z,27.78
2017-06-25T08:23:47.633Z,27.63
2017-06-25T08:24:57.548Z,27.54
2017-06-25T08:26:07.151Z,27.39
2017-06-25T08:27:17.059Z,27.31
2017-06-25T08:28:27.067Z,27.12
2017-06-25T08:29:36.377Z,26.94
2017-06-25T08:30:45.989Z,26.87
2017-06-25T08:31:56.233Z,26.82
2017-06-25T08:33:06.206Z,26.85
2017-06-25T08:34:16.168Z,26.82
2017-06-25T08:35:26.077Z,26.82
2017-06-25T08:36:35.690Z,26.81
2017-06-25T08:37:45.621Z,26.97
2017-06-25T08:38:55.545Z,27.03
2017-06-25T08:40:05.646Z,27.03
2017-06-25T08:41:15.887Z,27.13
2017-06-25T08:42:26.149Z,27.1
2017-06-25T08:43:36.148Z,27.13
2017-06-25T08:44:46.084Z,27.19
2017-06-25T08:45:56.354Z,27.25
2017-06-25T08:47:06.266Z,27.37
2017-06-25T08:48:16.873Z,27.36
2017-06-25T08:49:26.831Z,27.36
2017-06-25T08:50:36.742Z,27.39
2017-06-25T08:51:46.653Z,27.46
2017-06-25T08:52:56.275Z,27.44
2017-06-25T08:54:06.191Z,27.44
2017-06-25T08:55:16.798Z,27.54
2017-06-25T08:56:26.416Z,27.49
2017-06-25T08:57:36.805Z,27.57
2017-06-25T08:58:46.719Z,27.6
2017-06-25T08:59:56.978Z,27.59
2017-06-25T09:01:06.942Z,27.65
2017-06-25T09:02:16.583Z,27.7
2017-06-25T09:03:26.038Z,27.65
2017-06-25T09:04:35.975Z,27.65
2017-06-25T09:05:46.197Z,27.72
2017-06-25T09:06:55.897Z,27.51
2017-06-25T09:08:05.508Z,27.49
2017-06-25T09:09:14.979Z,27.4
2017-06-25T09:10:24.597Z,27.24
2017-06-25T09:11:34.819Z,27.22
2017-06-25T09:12:44.742Z,27.19
2017-06-25T09:13:54.660Z,27.17
2017-06-25T09:15:04.942Z,27.07
2017-06-25T09:16:14.578Z,27.1
2017-06-25T09:17:24.955Z,26.95
2017-06-25T09:18:35.461Z,26.97
2017-06-25T09:19:45.505Z,26.8
2017-06-25T09:20:56.438Z,26.82
2017-06-25T09:22:06.965Z,26.84
2017-06-25T09:23:17.006Z,26.75
2017-06-25T09:24:26.614Z,26.77
2017-06-25T09:25:36.226Z,26.65
2017-06-25T09:26:46.671Z,26.65
2017-06-25T09:27:56.652Z,26.52
2017-06-25T09:29:06.556Z,26.44
2017-06-25T09:30:16.170Z,26.29
2017-06-25T09:31:25.782Z,26.09
2017-06-25T09:32:35.851Z,26.01
2017-06-25T09:33:45.451Z,25.97
2017-06-25T09:34:55.667Z,25.92
2017-06-25T09:36:05.614Z,25.87
2017-06-25T09:37:15.518Z,25.79
2017-06-25T09:38:25.474Z,25.69
2017-06-25T09:39:35.525Z,25.69
2017-06-25T09:40:45.576Z,25.58
2017-06-25T09:41:54.882Z,25.6
2017-06-25T09:43:05.024Z,25.54
2017-06-25T09:44:15.263Z,25.55
2017-06-25T09:45:24.968Z,25.51
2017-06-25T09:46:36.002Z,25.47
2017-06-25T09:47:46.220Z,25.52
2017-06-25T09:48:56.487Z,25.47
2017-06-25T09:50:06.528Z,25.36
2017-06-25T09:51:16.920Z,25.39
2017-06-25T09:52:26.523Z,25.39
2017-06-25T09:53:36.126Z,25.39
2017-06-25T09:54:46.149Z,25.38
2017-06-25T09:55:56.371Z,25.33
2017-06-25T09:57:06.616Z,25.38
2017-06-25T09:58:16.828Z,25.46
2017-06-25T09:59:27.047Z,25.4
2017-06-25T10:00:36.753Z,25.39
2017-06-25T10:01:46.053Z,25.42
2017-06-25T10:02:55.681Z,25.39
2017-06-25T10:04:06.166Z,25.42
2017-06-25T10:05:16.403Z,25.33
2017-06-25T10:06:26.321Z,25.32
2017-06-25T10:07:36.234Z,25.3
2017-06-25T10:08:45.548Z,25.43
2017-06-25T10:09:55.762Z,25.35
2017-06-25T10:11:05.070Z,25.32
2017-06-25T10:12:15.303Z,25.35
2017-06-25T10:13:25.546Z,25.32
2017-06-25T10:14:35.154Z,25.3
2017-06-25T10:15:45.373Z,25.36
2017-06-25T10:16:55.286Z,25.33
2017-06-25T10:18:05.190Z,25.32
2017-06-25T10:19:14.791Z,25.33
2017-06-25T10:20:25.012Z,25.38
2017-06-25T10:21:34.931Z,25.32
2017-06-25T10:22:44.866Z,25.25
2017-06-25T10:23:55.081Z,25.28
2017-06-25T10:25:04.986Z,25.2
2017-06-25T10:26:14.940Z,25.17
2017-06-25T10:27:25.153Z,25.18
2017-06-25T10:28:35.073Z,25.21
2017-06-25T10:29:45.291Z,25.17
2017-06-25T10:30:54.904Z,25.1
2017-06-25T10:32:04.570Z,25.13
2017-06-25T10:33:14.786Z,25.14
2017-06-25T10:34:23.795Z,25.02
2017-06-25T10:35:33.710Z,25.02
2017-06-25T10:36:43.623Z,24.98
2017-06-25T10:37:53.577Z,25.02
2017-06-25T10:39:03.802Z,25.03
2017-06-25T10:40:13.718Z,25.09
2017-06-25T10:41:23.321Z,25.13
2017-06-25T10:42:32.648Z,25.14
2017-06-25T10:43:42.883Z,25.14
2017-06-25T10:44:53.432Z,25.17
2017-06-25T10:46:03.072Z,25.18
2017-06-25T10:47:13.297Z,25.17
2017-06-25T10:48:23.233Z,25.1
2017-06-25T10:49:32.840Z,25.06
2017-06-25T10:50:42.755Z,25.08
2017-06-25T10:51:52.984Z,25.05
2017-06-25T10:53:02.906Z,25
2017-06-25T10:54:12.826Z,25.13
2017-06-25T10:55:23.047Z,25.09
2017-06-25T10:56:33.281Z,25
2017-06-25T10:57:42.903Z,25.02
2017-06-25T10:58:52.809Z,24.98
2017-06-25T11:00:03.024Z,24.91
2017-06-25T11:01:12.938Z,24.93
2017-06-25T11:02:22.543Z,24.93
2017-06-25T11:03:32.749Z,24.87
2017-06-25T11:04:42.353Z,24.91
2017-06-25T11:05:52.579Z,24.96
2017-06-25T11:07:02.488Z,24.93
2017-06-25T11:08:12.703Z,25.1
2017-06-25T11:09:22.612Z,25.09
2017-06-25T11:10:32.831Z,25.1
2017-06-25T11:11:42.763Z,25.09
2017-06-25T11:12:52.997Z,25.15
2017-06-25T11:14:03.231Z,25.09
2017-06-25T11:15:12.861Z,25.06
2017-06-25T11:16:22.788Z,25.14
2017-06-25T11:17:33.005Z,25.1
2017-06-25T11:18:42.612Z,25.1
2017-06-25T11:19:51.906Z,25.15
2017-06-25T11:21:02.160Z,25.13
2017-06-25T11:22:12.371Z,25.17
2017-06-25T11:23:21.983Z,25.1
2017-06-25T11:24:31.579Z,25.18
2017-06-25T11:25:42.218Z,25.15
2017-06-25T11:26:51.190Z,25.15
2017-06-25T11:28:01.110Z,25.24
2017-06-25T11:29:10.400Z,25.27
2017-06-25T11:30:20.311Z,25.21
2017-06-25T11:31:30.226Z,25.39
2017-06-25T11:32:39.827Z,25.33
2017-06-25T11:33:49.422Z,25.35
2017-06-25T11:34:59.029Z,25.35
2017-06-25T11:36:08.955Z,25.38
2017-06-25T11:37:19.173Z,25.43
2017-06-25T11:38:29.099Z,25.46
2017-06-25T11:39:38.703Z,25.43
2017-06-25T11:40:48.005Z,25.36
2017-06-25T11:41:57.294Z,25.45
2017-06-25T11:43:07.509Z,25.52
2017-06-25T11:44:17.414Z,25.52
2017-06-25T11:45:27.334Z,25.55
2017-06-25T11:46:36.938Z,25.6
2017-06-25T11:47:46.250Z,25.51
2017-06-25T11:48:56.171Z,25.51
2017-06-25T11:50:05.782Z,25.47
2017-06-25T11:51:15.696Z,25.58
2017-06-25T11:52:25.609Z,25.55
2017-06-25T11:53:35.829Z,25.47
2017-06-25T11:54:45.435Z,25.51
2017-06-25T11:55:54.110Z,25.46
2017-06-25T11:57:03.405Z,25.55
2017-06-25T11:58:13.636Z,25.64
2017-06-25T11:59:22.934Z,25.62
2017-06-25T12:00:32.536Z,25.57
2017-06-25T12:01:41.839Z,25.6
2017-06-25T12:02:51.455Z,25.51
2017-06-25T12:04:00.746Z,25.65
2017-06-25T12:05:10.354Z,25.52
2017-06-25T12:06:19.969Z,25.55
2017-06-25T12:07:29.883Z,25.58
2017-06-25T12:08:39.184Z,25.65
2017-06-25T12:09:48.808Z,25.54
2017-06-25T12:10:59.084Z,25.52
2017-06-25T12:12:08.096Z,25.58
2017-06-25T12:13:18.026Z,25.5
2017-06-25T12:14:27.939Z,25.57
2017-06-25T12:15:37.872Z,25.6
2017-06-25T12:16:47.768Z,25.52
2017-06-25T12:17:57.701Z,25.51
2017-06-25T12:19:07.974Z,25.55
2017-06-25T12:20:17.602Z,25.54
2017-06-25T12:21:27.514Z,25.58
2017-06-25T12:22:37.437Z,25.45
2017-06-25T12:23:47.040Z,25.42
2017-06-25T12:24:56.951Z,25.45
2017-06-25T12:26:06.254Z,25.39
2017-06-25T12:27:15.248Z,25.38
2017-06-25T12:28:25.167Z,25.39
2017-06-25T12:29:34.147Z,25.38
2017-06-25T12:30:44.077Z,25.45
2017-06-25T12:31:53.679Z,25.57
2017-06-25T12:33:03.596Z,25.54
2017-06-25T12:34:13.506Z,25.6
2017-06-25T12:35:23.714Z,25.64
2017-06-25T12:36:33.347Z,25.61
2017-06-25T12:37:43.605Z,25.6
2017-06-25T12:38:53.293Z,25.52
2017-06-25T12:40:03.545Z,25.58
2017-06-25T12:41:13.476Z,25.62
2017-06-25T12:42:23.697Z,25.73
2017-06-25T12:43:33.290Z,25.69
2017-06-25T12:44:42.597Z,25.69
2017-06-25T12:45:52.194Z,25.77
2017-06-25T12:47:02.107Z,25.83
2017-06-25T12:48:12.027Z,25.83
2017-06-25T12:49:21.933Z,25.92
2017-06-25T12:50:31.849Z,25.82
2017-06-25T12:51:42.064Z,25.92
2017-06-25T12:52:52.280Z,25.91
2017-06-25T12:54:02.490Z,25.9
2017-06-25T12:55:12.087Z,25.87
2017-06-25T12:56:21.689Z,25.88
2017-06-25T12:57:31.893Z,25.95
2017-06-25T12:58:41.817Z,25.85
2017-06-25T12:59:51.735Z,25.85
2017-06-25T13:01:01.338Z,25.8
2017-06-25T13:02:11.781Z,25.87
2017-06-25T13:03:21.076Z,25.9
2017-06-25T13:04:30.989Z,25.88
2017-06-25T13:05:40.909Z,25.9
2017-06-25T13:06:50.977Z,25.94
2017-06-25T13:08:00.906Z,25.91
2017-06-25T13:09:10.226Z,25.94
2017-06-25T13:10:19.839Z,25.97
2017-06-25T13:11:30.072Z,25.91
2017-06-25T13:12:40.133Z,25.9
2017-06-25T13:13:50.366Z,25.85
2017-06-25T13:15:00.296Z,25.87
2017-06-25T13:16:10.518Z,25.9
2017-06-25T13:17:20.419Z,25.92
2017-06-25T13:18:30.337Z,25.98
2017-06-25T13:19:40.564Z,25.92
2017-06-25T13:20:50.170Z,25.95
2017-06-25T13:21:59.772Z,25.95
2017-06-25T13:23:09.376Z,25.94
2017-06-25T13:24:19.291Z,25.91
2017-06-25T13:25:29.203Z,25.92
2017-06-25T13:26:38.526Z,25.79
2017-06-25T13:27:48.750Z,25.76
2017-06-25T13:28:58.053Z,25.7
2017-06-25T13:30:07.668Z,25.7
2017-06-25T13:31:17.579Z,25.62
2017-06-25T13:32:27.819Z,25.67
2017-06-25T13:33:37.142Z,25.65
2017-06-25T13:34:46.743Z,25.61
2017-06-25T13:35:56.344Z,25.6
2017-06-25T13:37:05.950Z,25.64
2017-06-25T13:38:16.180Z,25.67
2017-06-25T13:39:26.106Z,25.69
2017-06-25T13:40:36.031Z,25.58
2017-06-25T13:41:45.981Z,25.65
2017-06-25T13:42:55.907Z,25.69
2017-06-25T13:44:05.523Z,25.75
2017-06-25T13:45:15.443Z,25.7
2017-06-25T13:46:25.349Z,25.7
2017-06-25T13:47:34.658Z,25.73
2017-06-25T13:48:44.259Z,25.7
2017-06-25T13:49:54.472Z,25.7
2017-06-25T13:51:04.680Z,25.67
2017-06-25T13:52:14.976Z,25.73
2017-06-25T13:53:25.071Z,25.75
2017-06-25T13:54:34.682Z,25.75
2017-06-25T13:55:44.603Z,25.7
2017-06-25T13:56:54.051Z,25.67
2017-06-25T13:58:04.047Z,25.69
2017-06-25T13:59:14.257Z,25.72
2017-06-25T14:00:23.962Z,25.7
2017-06-25T14:01:33.568Z,25.73
2017-06-25T14:02:43.803Z,25.77
2017-06-25T14:03:53.710Z,25.73
2017-06-25T14:05:03.930Z,25.75
2017-06-25T14:06:13.829Z,25.73
2017-06-25T14:07:23.764Z,25.72
2017-06-25T14:08:33.691Z,25.79
2017-06-25T14:09:43.613Z,25.76
2017-06-25T14:10:53.993Z,25.75
2017-06-25T14:12:03.623Z,25.8
2017-06-25T14:13:13.221Z,25.82
2017-06-25T14:14:23.463Z,25.82
2017-06-25T14:15:33.684Z,25.8
2017-06-25T14:16:43.319Z,25.72
2017-06-25T14:17:53.563Z,25.69
2017-06-25T14:19:03.482Z,25.7
2017-06-25T14:20:13.746Z,25.72
2017-06-25T14:21:23.961Z,25.7
2017-06-25T14:22:34.211Z,25.69
2017-06-25T14:23:44.119Z,25.72
2017-06-25T14:24:54.337Z,25.67
2017-06-25T14:26:03.946Z,25.69
2017-06-25T14:27:13.860Z,25.77
2017-06-25T14:28:24.083Z,25.7
2017-06-25T14:29:33.995Z,25.83
2017-06-25T14:30:43.302Z,25.82
2017-06-25T14:31:52.913Z,25.77
2017-06-25T14:33:02.827Z,25.88
2017-06-25T14:34:12.442Z,25.82
2017-06-25T14:35:21.769Z,25.8
2017-06-25T14:36:31.680Z,25.77
2017-06-25T14:37:41.593Z,25.77
2017-06-25T14:38:50.918Z,25.76
2017-06-25T14:40:01.127Z,25.79
2017-06-25T14:41:11.363Z,25.8
2017-06-25T14:42:21.283Z,25.82
2017-06-25T14:43:31.198Z,25.73
2017-06-25T14:44:41.420Z,25.7
2017-06-25T14:45:51.634Z,25.64
2017-06-25T14:47:01.547Z,25.65
2017-06-25T14:48:11.783Z,25.58
2017-06-25T14:49:21.692Z,25.58
2017-06-25T14:50:31.911Z,25.46
2017-06-25T14:51:41.508Z,25.57
2017-06-25T14:52:51.113Z,25.5
2017-06-25T14:54:00.722Z,25.47
2017-06-25T14:55:10.977Z,25.54
2017-06-25T14:56:20.600Z,25.5
2017-06-25T14:57:30.518Z,25.5
2017-06-25T14:58:41.605Z,25.47
2017-06-25T14:59:51.844Z,25.45
2017-06-25T15:01:01.759Z,25.47
2017-06-25T15:02:11.684Z,25.47
2017-06-25T15:03:21.290Z,25.47
2017-06-25T15:04:31.509Z,25.51